createdAt,value
2019-02-09T00:00:21.514Z,2.900000
2019-02-09T00:02:51.819Z,2.900000
2019-02-09T00:05:22.112Z,3.900000
2019-02-09T00:07:52.399Z,3.900000
2019-02-09T00:10:22.687Z,7.100000
2019-02-09T00:12:53.005Z,7.100000
2019-02-09T00:15:23.438Z,5.900000
2019-02-09T00:17:53.755Z,5.900000
2019-02-09T00:20:24.158Z,4.900000
2019-02-09T00:22:54.474Z,4.900000
2019-02-09T00:25:24.782Z,3.700000
2019-02-09T00:27:55.092Z,5.200000
2019-02-09T00:30:25.490Z,5.200000
2019-02-09T00:32:55.874Z,6.000000
2019-02-09T00:35:26.246Z,6.000000
2019-02-09T00:37:56.542Z,3.300000
2019-02-09T00:40:26.925Z,3.300000
2019-02-09T00:42:57.213Z,4.700000
2019-02-09T00:45:27.581Z,4.700000
2019-02-09T00:47:58.087Z,6.300000
2019-02-09T00:50:28.353Z,6.300000
2019-02-09T00:52:58.732Z,4.300000
2019-02-09T00:55:29.028Z,4.300000
2019-02-09T00:57:59.567Z,3.700000
2019-02-09T01:00:31.355Z,3.700000
2019-02-09T01:03:02.044Z,2.900000
2019-02-09T01:05:32.425Z,2.900000
2019-02-09T01:08:02.707Z,3.200000
2019-02-09T01:10:33.018Z,3.200000
2019-02-09T01:13:03.496Z,3.000000
2019-02-09T01:15:33.790Z,3.000000
2019-02-09T01:18:03.987Z,3.700000
2019-02-09T01:20:34.296Z,3.700000
2019-02-09T01:23:04.600Z,4.300000
2019-02-09T01:25:35.003Z,4.300000
2019-02-09T01:28:05.212Z,2.300000
2019-02-09T01:30:35.507Z,2.300000
2019-02-09T01:33:05.788Z,4.700000
2019-02-09T01:35:36.089Z,4.700000
2019-02-09T01:38:06.486Z,2.900000
2019-02-09T01:40:36.790Z,2.900000
2019-02-09T01:43:07.072Z,4.100000
2019-02-09T01:45:37.391Z,4.100000
2019-02-09T01:48:07.677Z,1.000000
2019-02-09T01:50:38.034Z,1.000000
2019-02-09T01:53:08.367Z,2.000000
2019-02-09T01:55:38.654Z,2.000000
2019-02-09T01:58:08.947Z,1.500000
2019-02-09T02:00:39.248Z,1.500000
2019-02-09T02:03:09.607Z,3.600000
2019-02-09T02:05:39.786Z,3.600000
2019-02-09T02:08:10.075Z,5.100000
2019-02-09T02:10:40.465Z,5.100000
2019-02-09T02:13:10.760Z,7.300000
2019-02-09T02:15:41.147Z,7.300000
2019-02-09T02:18:11.440Z,5.000000
2019-02-09T02:20:41.932Z,5.000000
2019-02-09T02:23:12.317Z,5.000000
2019-02-09T02:25:42.619Z,5.000000
2019-02-09T02:28:12.911Z,7.500000
2019-02-09T02:30:43.214Z,7.500000
2019-02-09T02:33:13.504Z,4.800000
2019-02-09T02:35:43.804Z,4.800000
2019-02-09T02:38:14.085Z,7.400000
2019-02-09T02:40:44.389Z,7.400000
2019-02-09T02:43:14.815Z,5.800000
2019-02-09T02:45:45.114Z,5.800000
2019-02-09T02:48:15.418Z,5.700000
2019-02-09T02:50:45.924Z,5.700000
2019-02-09T02:53:16.650Z,2.800000
2019-02-09T02:55:47.005Z,2.800000
2019-02-09T02:58:17.402Z,5.000000
2019-02-09T03:00:47.781Z,5.000000
2019-02-09T03:03:18.075Z,10.400000
2019-02-09T03:05:48.570Z,10.400000
2019-02-09T03:08:18.955Z,4.200000
2019-02-09T03:10:54.360Z,4.200000
2019-02-09T03:13:24.707Z,5.200000
2019-02-09T03:16:00.123Z,5.200000
2019-02-09T03:18:31.413Z,6.700000
2019-02-09T03:21:01.751Z,6.700000
2019-02-09T03:23:32.060Z,5.900000
2019-02-09T03:26:02.335Z,5.900000
2019-02-09T03:28:32.743Z,4.500000
2019-02-09T03:31:03.138Z,4.500000
2019-02-09T03:33:33.606Z,4.300000
2019-02-09T03:36:05.006Z,4.300000
2019-02-09T03:38:35.372Z,4.300000
2019-02-09T03:41:05.694Z,4.300000
2019-02-09T03:43:35.966Z,5.700000
2019-02-09T03:46:06.270Z,5.700000
2019-02-09T03:48:36.617Z,6.400000
2019-02-09T03:51:06.985Z,6.400000
2019-02-09T03:53:37.291Z,9.100000
2019-02-09T03:56:07.580Z,9.100000
2019-02-09T03:58:37.982Z,3.600000
2019-02-09T04:01:08.279Z,3.600000
2019-02-09T04:03:38.687Z,6.100000
2019-02-09T04:06:08.971Z,6.100000
2019-02-09T04:08:39.370Z,5.800000
2019-02-09T04:11:09.656Z,5.800000
2019-02-09T04:13:40.063Z,5.900000
2019-02-09T04:16:10.475Z,5.900000
2019-02-09T04:18:40.778Z,5.800000
2019-02-09T04:21:11.084Z,5.800000
2019-02-09T04:23:41.409Z,6.300000
2019-02-09T04:26:11.703Z,6.300000
2019-02-09T04:28:41.996Z,3.800000
2019-02-09T04:31:12.370Z,3.800000
2019-02-09T04:33:42.658Z,7.600000
2019-02-09T04:36:12.950Z,7.600000
2019-02-09T04:38:43.264Z,6.800000
2019-02-09T04:41:13.616Z,6.800000
2019-02-09T04:43:43.910Z,8.700000
2019-02-09T04:46:14.211Z,8.700000
2019-02-09T04:48:44.585Z,4.700000
2019-02-09T04:51:14.974Z,4.700000
2019-02-09T04:53:45.276Z,0.800000
2019-02-09T04:56:15.580Z,0.800000
2019-02-09T04:58:45.870Z,9.500000
2019-02-09T05:01:16.169Z,9.500000
2019-02-09T05:03:46.561Z,7.900000
2019-02-09T05:06:16.922Z,7.900000
2019-02-09T05:08:47.211Z,6.500000
2019-02-09T05:11:17.583Z,6.500000
2019-02-09T05:13:48.004Z,7.600000
2019-02-09T05:16:18.335Z,7.600000
2019-02-09T05:18:48.722Z,7.000000
2019-02-09T05:21:24.150Z,7.000000
2019-02-09T05:23:59.492Z,8.400000
2019-02-09T05:26:29.852Z,5.500000
2019-02-09T05:29:00.307Z,5.500000
2019-02-09T05:31:30.707Z,9.100000
2019-02-09T05:34:01.096Z,9.100000
2019-02-09T05:36:31.385Z,7.900000
2019-02-09T05:39:01.671Z,7.900000
2019-02-09T05:41:31.975Z,5.600000
2019-02-09T05:44:02.369Z,5.600000
2019-02-09T05:46:32.868Z,5.100000
2019-02-09T05:49:03.167Z,5.100000
2019-02-09T05:51:33.539Z,9.400000
2019-02-09T05:54:04.123Z,9.400000
2019-02-09T05:56:34.511Z,6.000000
2019-02-09T05:59:04.969Z,6.000000
2019-02-09T06:01:35.543Z,6.400000
2019-02-09T06:04:06.245Z,6.400000
2019-02-09T06:06:36.505Z,8.100000
2019-02-09T06:09:06.892Z,8.100000
2019-02-09T06:11:37.186Z,1.900000
2019-02-09T06:14:07.556Z,1.900000
2019-02-09T06:16:37.954Z,8.000000
2019-02-09T06:19:08.346Z,8.000000
2019-02-09T06:21:38.677Z,9.100000
2019-02-09T06:24:09.060Z,9.100000
2019-02-09T06:26:39.360Z,2.800000
2019-02-09T06:29:09.793Z,2.800000
2019-02-09T06:31:40.945Z,5.200000
2019-02-09T06:34:11.621Z,5.200000
2019-02-09T06:36:41.985Z,7.200000
2019-02-09T06:39:12.277Z,7.200000
2019-02-09T06:41:42.774Z,4.900000
2019-02-09T06:44:13.137Z,4.900000
2019-02-09T06:46:43.520Z,4.700000
2019-02-09T06:49:13.813Z,4.700000
2019-02-09T06:51:44.187Z,3.700000
2019-02-09T06:54:14.595Z,3.700000
2019-02-09T06:56:44.928Z,8.700000
2019-02-09T06:59:15.305Z,8.700000
2019-02-09T07:01:48.754Z,11.300000
2019-02-09T07:04:19.363Z,11.300000
2019-02-09T07:06:49.850Z,8.900000
2019-02-09T07:09:20.146Z,8.900000
2019-02-09T07:11:50.406Z,8.200000
2019-02-09T07:14:20.727Z,8.200000
2019-02-09T07:16:50.989Z,10.500000
2019-02-09T07:19:21.287Z,10.500000
2019-02-09T07:21:51.558Z,10.900000
2019-02-09T07:24:21.922Z,10.900000
2019-02-09T07:26:52.262Z,12.400000
2019-02-09T07:29:22.555Z,12.400000
2019-02-09T07:31:56.530Z,4.400000
2019-02-09T07:34:27.138Z,4.400000
2019-02-09T07:36:57.436Z,9.300000
2019-02-09T07:39:27.818Z,9.300000
2019-02-09T07:41:58.118Z,12.100000
2019-02-09T07:44:28.418Z,12.100000
2019-02-09T07:46:58.827Z,7.600000
2019-02-09T07:49:29.089Z,7.600000
2019-02-09T07:51:59.396Z,10.600000
2019-02-09T07:54:29.704Z,10.600000
2019-02-09T07:57:00.079Z,10.900000
2019-02-09T07:59:30.402Z,10.900000
2019-02-09T08:02:04.673Z,4.400000
2019-02-09T08:04:35.232Z,4.400000
2019-02-09T08:07:05.679Z,7.100000
2019-02-09T08:09:35.997Z,7.100000
2019-02-09T08:12:06.208Z,3.500000
2019-02-09T08:14:36.593Z,3.500000
2019-02-09T08:17:06.890Z,13.100000
2019-02-09T08:19:37.182Z,13.100000
2019-02-09T08:22:07.525Z,7.200000
2019-02-09T08:24:37.861Z,7.200000
2019-02-09T08:27:08.191Z,8.200000
2019-02-09T08:29:38.541Z,8.200000
2019-02-09T08:32:12.693Z,8.300000
2019-02-09T08:34:43.600Z,8.300000
2019-02-09T08:37:13.992Z,12.300000
2019-02-09T08:39:44.295Z,12.300000
2019-02-09T08:42:14.672Z,5.800000
2019-02-09T08:44:44.990Z,5.800000
2019-02-09T08:47:15.390Z,11.800000
2019-02-09T08:49:45.777Z,11.800000
2019-02-09T08:52:16.099Z,11.000000
2019-02-09T08:54:46.627Z,11.000000
2019-02-09T08:57:17.004Z,12.300000
2019-02-09T08:59:47.372Z,12.300000
2019-02-09T09:02:20.635Z,13.800000
2019-02-09T09:04:51.299Z,13.800000
2019-02-09T09:07:21.613Z,12.800000
2019-02-09T09:09:52.058Z,12.800000
2019-02-09T09:12:22.439Z,10.800000
2019-02-09T09:14:52.772Z,10.800000
2019-02-09T09:17:23.199Z,11.700000
2019-02-09T09:19:53.450Z,11.700000
2019-02-09T09:22:23.790Z,14.600000
2019-02-09T09:24:54.032Z,14.600000
2019-02-09T09:27:24.360Z,15.500000
2019-02-09T09:29:54.789Z,15.500000
2019-02-09T09:32:28.732Z,18.400000
2019-02-09T09:34:59.365Z,18.400000
2019-02-09T09:37:29.602Z,11.400000
2019-02-09T09:39:59.885Z,11.400000
2019-02-09T09:42:30.201Z,20.400000
2019-02-09T09:45:00.556Z,20.400000
2019-02-09T09:47:30.917Z,12.400000
2019-02-09T09:50:01.259Z,12.400000
2019-02-09T09:52:31.420Z,20.600000
2019-02-09T09:55:01.683Z,20.600000
2019-02-09T09:57:32.059Z,16.900000
2019-02-09T10:00:02.622Z,16.900000
2019-02-09T10:02:38.086Z,16.300000
2019-02-09T10:05:08.940Z,16.300000
2019-02-09T10:07:39.254Z,10.800000
2019-02-09T10:10:09.553Z,10.800000
2019-02-09T10:12:40.089Z,12.700000
2019-02-09T10:15:10.882Z,16.900000
2019-02-09T10:17:41.655Z,16.900000
2019-02-09T10:20:12.077Z,13.700000
2019-02-09T10:22:42.897Z,13.700000
2019-02-09T10:25:13.529Z,13.500000
2019-02-09T10:27:44.227Z,13.500000
2019-02-09T10:30:14.697Z,14.600000
2019-02-09T10:32:45.060Z,14.600000
2019-02-09T10:35:15.621Z,13.700000
2019-02-09T10:37:45.999Z,13.700000
2019-02-09T10:40:16.484Z,11.700000
2019-02-09T10:42:47.080Z,11.700000
2019-02-09T10:45:17.469Z,17.500000
2019-02-09T10:47:47.716Z,17.500000
2019-02-09T10:50:18.030Z,8.800000
2019-02-09T10:52:48.370Z,8.800000
2019-02-09T10:55:18.606Z,19.200000
2019-02-09T10:57:48.740Z,19.200000
2019-02-09T11:00:19.163Z,17.200000
2019-02-09T11:02:52.285Z,17.200000
2019-02-09T11:05:22.714Z,12.100000
2019-02-09T11:07:53.152Z,12.100000
2019-02-09T11:10:23.463Z,11.200000
2019-02-09T11:12:53.825Z,11.200000
2019-02-09T11:15:24.324Z,11.000000
2019-02-09T11:17:54.774Z,11.000000
2019-02-09T11:20:25.110Z,14.000000
2019-02-09T11:23:00.433Z,14.000000
2019-02-09T11:25:31.004Z,9.000000
2019-02-09T11:28:01.303Z,9.000000
2019-02-09T11:30:31.618Z,9.600000
2019-02-09T11:33:02.617Z,9.600000
2019-02-09T11:35:32.993Z,11.600000
2019-02-09T11:38:03.220Z,11.600000
2019-02-09T11:40:33.610Z,6.500000
2019-02-09T11:43:03.981Z,6.500000
2019-02-09T11:45:34.346Z,8.400000
2019-02-09T11:48:04.648Z,8.400000
2019-02-09T11:50:35.211Z,13.300000
2019-02-09T11:53:05.555Z,13.300000
2019-02-09T11:55:35.898Z,12.700000
2019-02-09T11:58:06.393Z,12.700000
2019-02-09T12:00:36.694Z,10.500000
2019-02-09T12:03:14.675Z,10.500000
2019-02-09T12:05:46.378Z,7.200000
2019-02-09T12:08:16.718Z,7.200000
2019-02-09T12:10:47.071Z,7.100000
2019-02-09T12:13:17.329Z,7.100000
2019-02-09T12:15:47.801Z,9.400000
2019-02-09T12:18:18.140Z,9.400000
2019-02-09T12:20:48.460Z,5.900000
2019-02-09T12:23:18.885Z,5.900000
2019-02-09T12:25:49.116Z,7.300000
2019-02-09T12:28:19.455Z,7.300000
2019-02-09T12:30:49.784Z,12.600000
2019-02-09T12:33:23.064Z,12.600000
2019-02-09T12:35:54.024Z,10.500000
2019-02-09T12:38:24.343Z,10.500000
2019-02-09T12:40:54.765Z,7.300000
2019-02-09T12:43:25.182Z,7.300000
2019-02-09T12:45:55.613Z,6.400000
2019-02-09T12:48:25.902Z,6.400000
2019-02-09T12:50:56.265Z,10.400000
2019-02-09T12:53:26.717Z,10.400000
2019-02-09T12:55:56.945Z,7.200000
2019-02-09T12:58:27.251Z,7.200000
2019-02-09T13:00:57.549Z,12.500000
2019-02-09T13:03:31.307Z,12.500000
2019-02-09T13:06:02.068Z,10.900000
2019-02-09T13:08:42.439Z,10.900000
2019-02-09T13:11:12.732Z,11.700000
2019-02-09T13:13:43.051Z,11.700000
2019-02-09T13:16:13.378Z,7.300000
2019-02-09T13:18:43.776Z,7.300000
2019-02-09T13:21:14.101Z,9.600000
2019-02-09T13:23:44.407Z,9.600000
2019-02-09T13:26:14.710Z,10.700000
2019-02-09T13:28:45.090Z,10.700000
2019-02-09T13:31:15.450Z,10.600000
2019-02-09T13:33:45.825Z,10.600000
2019-02-09T13:36:16.304Z,13.400000
2019-02-09T13:38:46.610Z,13.400000
2019-02-09T13:41:17.056Z,9.600000
2019-02-09T13:43:47.301Z,9.600000
2019-02-09T13:46:17.810Z,11.700000
2019-02-09T13:48:48.111Z,11.700000
2019-02-09T13:51:18.543Z,11.900000
2019-02-09T13:53:48.871Z,11.900000
2019-02-09T13:56:18.946Z,13.100000
2019-02-09T13:58:49.257Z,13.100000
2019-02-09T14:01:19.676Z,13.100000
2019-02-09T14:03:50.382Z,13.100000
2019-02-09T14:06:20.594Z,8.900000
2019-02-09T14:08:51.055Z,8.900000
2019-02-09T14:11:21.656Z,7.700000
2019-02-09T14:13:51.998Z,7.700000
2019-02-09T14:16:22.358Z,12.200000
2019-02-09T14:18:52.662Z,12.200000
2019-02-09T14:21:23.058Z,13.300000
2019-02-09T14:23:53.438Z,13.300000
2019-02-09T14:26:23.959Z,14.300000
2019-02-09T14:28:54.291Z,14.300000
2019-02-09T14:31:24.603Z,11.000000
2019-02-09T14:33:55.455Z,11.000000
2019-02-09T14:36:25.826Z,9.600000
2019-02-09T14:38:56.101Z,9.600000
2019-02-09T14:41:26.476Z,9.300000
2019-02-09T14:43:56.774Z,9.300000
2019-02-09T14:46:27.069Z,13.100000
2019-02-09T14:48:57.305Z,13.100000
2019-02-09T14:51:27.681Z,13.700000
2019-02-09T14:53:58.059Z,13.700000
2019-02-09T14:56:28.325Z,9.300000
2019-02-09T14:58:58.581Z,9.300000
2019-02-09T15:01:28.928Z,8.400000
2019-02-09T15:04:02.785Z,8.400000
2019-02-09T15:06:38.485Z,12.700000
2019-02-09T15:09:13.818Z,11.300000
2019-02-09T15:11:44.492Z,11.300000
2019-02-09T15:14:14.943Z,12.900000
2019-02-09T15:16:45.198Z,12.900000
2019-02-09T15:19:15.974Z,10.300000
2019-02-09T15:21:46.367Z,10.300000
2019-02-09T15:24:16.955Z,10.700000
2019-02-09T15:26:47.403Z,10.700000
2019-02-09T15:29:17.712Z,14.000000
2019-02-09T15:31:52.990Z,14.000000
2019-02-09T15:34:23.371Z,10.900000
2019-02-09T15:36:53.708Z,10.900000
2019-02-09T15:39:24.179Z,10.500000
2019-02-09T15:41:54.520Z,10.500000
2019-02-09T15:44:24.859Z,16.400000
2019-02-09T15:46:55.220Z,16.400000
2019-02-09T15:49:25.606Z,12.700000
2019-02-09T15:51:55.959Z,12.700000
2019-02-09T15:54:26.339Z,12.800000
2019-02-09T15:56:56.699Z,12.800000
2019-02-09T15:59:27.046Z,10.500000
2019-02-09T16:01:57.431Z,10.500000
2019-02-09T16:04:27.879Z,11.400000
2019-02-09T16:06:58.219Z,11.400000
2019-02-09T16:09:28.571Z,12.500000
2019-02-09T16:11:58.835Z,12.500000
2019-02-09T16:14:29.176Z,9.900000
2019-02-09T16:16:59.515Z,9.900000
2019-02-09T16:19:29.869Z,7.500000
2019-02-09T16:22:00.266Z,7.500000
2019-02-09T16:24:30.577Z,12.600000
2019-02-09T16:27:00.926Z,12.600000
2019-02-09T16:29:31.270Z,10.200000
2019-02-09T16:32:01.661Z,10.200000
2019-02-09T16:34:31.965Z,5.700000
2019-02-09T16:37:02.338Z,5.700000
2019-02-09T16:39:32.652Z,8.500000
2019-02-09T16:42:02.978Z,8.500000
2019-02-09T16:44:33.417Z,9.400000
2019-02-09T16:47:03.783Z,9.400000
2019-02-09T16:49:34.118Z,11.800000
2019-02-09T16:52:04.350Z,11.800000
2019-02-09T16:54:34.704Z,8.500000
2019-02-09T16:57:05.047Z,8.500000
2019-02-09T16:59:35.392Z,7.400000
2019-02-09T17:02:05.939Z,7.400000
2019-02-09T17:04:36.258Z,8.100000
2019-02-09T17:07:06.580Z,8.100000
2019-02-09T17:09:36.888Z,10.200000
2019-02-09T17:12:07.216Z,10.200000
2019-02-09T17:14:37.743Z,12.300000
2019-02-09T17:17:08.212Z,12.300000
2019-02-09T17:19:38.686Z,10.000000
2019-02-09T17:22:14.363Z,10.000000
2019-02-09T17:24:44.622Z,6.600000
2019-02-09T17:27:14.929Z,6.600000
2019-02-09T17:29:45.249Z,14.500000
2019-02-09T17:32:15.570Z,14.500000
2019-02-09T17:34:45.883Z,10.300000
2019-02-09T17:37:16.307Z,10.300000
2019-02-09T17:39:46.651Z,10.800000
2019-02-09T17:42:16.962Z,10.800000
2019-02-09T17:44:47.287Z,11.100000
2019-02-09T17:47:17.699Z,11.100000
2019-02-09T17:49:48.054Z,8.800000
2019-02-09T17:52:18.356Z,8.800000
2019-02-09T17:54:48.683Z,9.900000
2019-02-09T17:57:19.153Z,9.900000
2019-02-09T17:59:49.494Z,14.100000
2019-02-09T18:02:20.549Z,14.100000
2019-02-09T18:04:51.212Z,9.700000
2019-02-09T18:07:21.729Z,9.700000
2019-02-09T18:09:52.016Z,14.600000
2019-02-09T18:12:22.421Z,14.600000
2019-02-09T18:14:52.879Z,11.800000
2019-02-09T18:17:23.315Z,11.800000
2019-02-09T18:19:53.615Z,6.800000
2019-02-09T18:22:24.162Z,6.800000
2019-02-09T18:24:54.554Z,9.300000
2019-02-09T18:27:25.094Z,9.300000
2019-02-09T18:29:55.291Z,11.200000
2019-02-09T18:32:25.706Z,11.200000
2019-02-09T18:34:56.374Z,11.100000
2019-02-09T18:37:26.661Z,11.100000
2019-02-09T18:39:57.116Z,11.900000
2019-02-09T18:42:27.555Z,11.900000
2019-02-09T18:44:57.848Z,13.700000
2019-02-09T18:47:28.146Z,13.700000
2019-02-09T18:49:58.465Z,9.000000
2019-02-09T18:52:28.765Z,9.000000
2019-02-09T18:54:58.981Z,12.900000
2019-02-09T18:57:29.375Z,12.900000
2019-02-09T18:59:59.715Z,12.500000
2019-02-09T19:02:30.085Z,12.500000
2019-02-09T19:06:18.683Z,11.000000
2019-02-09T19:08:49.128Z,7.900000
2019-02-09T19:11:19.424Z,7.900000
2019-02-09T19:13:49.759Z,16.900000
2019-02-09T19:16:20.132Z,16.900000
2019-02-09T19:18:50.458Z,11.600000
2019-02-09T19:21:20.853Z,11.600000
2019-02-09T19:23:51.175Z,11.100000
2019-02-09T19:26:21.547Z,11.100000
2019-02-09T19:28:51.876Z,18.000000
2019-02-09T19:31:22.208Z,18.000000
2019-02-09T19:33:52.546Z,13.300000
2019-02-09T19:36:27.950Z,13.300000
2019-02-09T19:38:58.313Z,10.200000
2019-02-09T19:41:28.611Z,10.200000
2019-02-09T19:43:58.960Z,15.100000
2019-02-09T19:46:29.248Z,15.100000
2019-02-09T19:48:59.573Z,13.900000
2019-02-09T19:51:29.862Z,13.900000
2019-02-09T19:54:00.175Z,10.500000
2019-02-09T19:56:30.489Z,10.500000
2019-02-09T19:59:00.791Z,11.200000
2019-02-09T20:01:31.111Z,11.200000
2019-02-09T20:04:02.471Z,9.900000
2019-02-09T20:06:32.744Z,9.900000
2019-02-09T20:09:03.104Z,15.300000
2019-02-09T20:11:33.492Z,15.300000
2019-02-09T20:14:03.821Z,21.400000
2019-02-09T20:16:34.119Z,21.400000
2019-02-09T20:19:04.466Z,11.500000
2019-02-09T20:21:34.911Z,11.500000
2019-02-09T20:24:05.261Z,12.300000
2019-02-09T20:26:35.549Z,12.300000
2019-02-09T20:29:05.846Z,12.100000
2019-02-09T20:31:36.168Z,12.100000
2019-02-09T20:34:06.573Z,16.800000
2019-02-09T20:36:36.871Z,16.800000
2019-02-09T20:39:07.187Z,16.900000
2019-02-09T20:41:37.502Z,16.900000
2019-02-09T20:44:07.939Z,11.200000
2019-02-09T20:46:38.227Z,11.200000
2019-02-09T20:49:08.637Z,12.100000
2019-02-09T20:51:38.844Z,12.100000
2019-02-09T20:54:09.161Z,14.600000
2019-02-09T20:56:39.460Z,14.600000
2019-02-09T20:59:09.883Z,5.600000
2019-02-09T21:01:40.189Z,5.600000
2019-02-09T21:04:10.706Z,16.100000
2019-02-09T21:06:41.026Z,16.100000
2019-02-09T21:09:11.317Z,12.200000
2019-02-09T21:11:41.723Z,12.200000
2019-02-09T21:14:12.016Z,11.200000
2019-02-09T21:16:42.209Z,11.200000
2019-02-09T21:19:12.612Z,14.400000
2019-02-09T21:21:42.905Z,14.400000
2019-02-09T21:24:13.310Z,11.000000
2019-02-09T21:26:43.638Z,11.000000
2019-02-09T21:29:14.010Z,8.300000
2019-02-09T21:31:44.375Z,8.300000
2019-02-09T21:34:14.696Z,11.500000
2019-02-09T21:36:44.991Z,11.500000
2019-02-09T21:39:15.300Z,6.200000
2019-02-09T21:41:45.705Z,6.200000
2019-02-09T21:44:15.990Z,11.900000
2019-02-09T21:46:46.292Z,11.900000
2019-02-09T21:49:16.719Z,11.400000
2019-02-09T21:51:47.106Z,11.400000
2019-02-09T21:54:17.430Z,8.300000
2019-02-09T21:56:47.726Z,8.300000
2019-02-09T21:59:18.030Z,6.300000
2019-02-09T22:01:48.305Z,6.300000
2019-02-09T22:04:18.627Z,11.400000
2019-02-09T22:06:48.926Z,11.400000
2019-02-09T22:09:19.258Z,10.500000
2019-02-09T22:11:49.687Z,10.500000
2019-02-09T22:14:20.146Z,16.200000
2019-02-09T22:16:50.750Z,16.200000
2019-02-09T22:19:21.143Z,5.400000
2019-02-09T22:21:51.879Z,5.400000
2019-02-09T22:24:22.398Z,12.200000
2019-02-09T22:26:52.767Z,12.200000
2019-02-09T22:29:23.209Z,10.900000
2019-02-09T22:31:53.570Z,10.900000
2019-02-09T22:34:23.844Z,7.100000
2019-02-09T22:36:54.235Z,7.100000
2019-02-09T22:39:24.542Z,11.100000
2019-02-09T22:41:54.846Z,11.100000
2019-02-09T22:44:25.310Z,9.800000
2019-02-09T22:46:55.779Z,9.800000
2019-02-09T22:49:26.077Z,13.800000
2019-02-09T22:51:56.402Z,12.300000
2019-02-09T22:54:26.705Z,12.300000
2019-02-09T22:56:57.003Z,9.800000
2019-02-09T22:59:27.309Z,9.800000
2019-02-09T23:01:57.621Z,11.500000
2019-02-09T23:04:27.906Z,11.500000
2019-02-09T23:06:58.217Z,11.600000
2019-02-09T23:09:28.631Z,11.600000
2019-02-09T23:11:59.025Z,7.500000
2019-02-09T23:14:29.431Z,7.500000
2019-02-09T23:16:59.790Z,8.300000
2019-02-09T23:19:30.061Z,8.300000
2019-02-09T23:22:05.461Z,9.800000
2019-02-09T23:24:35.806Z,9.800000
2019-02-09T23:27:06.097Z,7.700000
2019-02-09T23:29:36.379Z,7.700000
2019-02-09T23:32:06.685Z,9.600000
2019-02-09T23:34:36.969Z,9.600000
2019-02-09T23:37:07.256Z,9.300000
2019-02-09T23:39:37.561Z,9.300000
2019-02-09T23:42:07.851Z,11.200000
2019-02-09T23:44:38.425Z,11.200000
2019-02-09T23:47:08.828Z,7.100000
2019-02-09T23:49:39.147Z,7.100000
2019-02-09T23:52:09.356Z,11.500000
2019-02-09T23:54:39.689Z,11.500000
2019-02-09T23:57:10.061Z,10.300000
2019-02-09T23:59:40.366Z,10.300000
